ケアンズ の空港の天気 - METARとTAF

ケアンズ国際空港 ( YBCS / CNS ) - オーストラリア クイーンズランド州ケアンズ
飛行場実況気象(Metar)
観測時間06/02 09:00 AEST (06/01 23:00 UTC)
風向・風速南東 4m/s
視程10km以上
天気現象
なし
気温24℃
湿度74%
気圧1018hPa
METARYBCS 012300Z AUTO 13007KT 9999 // NCD 24/19 Q1018 NOSIG
過去の天気等 Google飛行場航空写真 Wunderground天気予報

過去48時間のMETAR

飛行場予報(TAF)
発表時間: 6/02 03:02 AEST (6/01 17:02 UTC)
予報対象時間: 2日4時 AEST ~ 3日4時 AEST
風向・風速南 3m/s
視程10km以上
少しの雲 雲底高度 460m
全天の8割程度の雲 雲底高度 760m
2日9時 AEST から
風向・風速南東 5m/s
視程10km以上
少しの雲 雲底高度 1220m
2日18時 AEST から
風向・風速南 4m/s
視程10km以上
全天の4割程度の雲 雲底高度 610m
全天の8割程度の雲 雲底高度 910m
TAF YBCS 011702Z 0118/0218 17005KT 9999 FEW015 BKN025
FM012300 13010KT 9999 FEW040
FM020800 17007KT 9999 SCT020 BKN030